createdAt,value
2018-04-30T00:04:10.504Z,5.10
2018-04-30T00:09:12.043Z,4.70
2018-04-30T00:14:13.592Z,5.83
2018-04-30T00:19:15.875Z,5.57
2018-04-30T00:24:18.406Z,7.70
2018-04-30T00:29:19.925Z,5.83
2018-04-30T00:34:21.435Z,6.10
2018-04-30T00:39:23.021Z,5.70
2018-04-30T00:44:24.544Z,5.30
2018-04-30T00:49:26.813Z,5.50
2018-04-30T00:54:46.729Z,5.20
2018-04-30T00:59:49.079Z,5.10
2018-04-30T01:04:50.610Z,6.40
2018-04-30T01:09:52.147Z,5.33
2018-04-30T01:14:54.435Z,7.23
2018-04-30T01:19:56.711Z,6.40
2018-04-30T01:24:58.985Z,4.30
2018-04-30T01:30:00.793Z,2.63
2018-04-30T01:35:02.348Z,2.07
2018-04-30T01:40:04.636Z,6.00
2018-04-30T01:45:06.188Z,7.37
2018-04-30T01:50:07.712Z,3.40
2018-04-30T01:55:09.239Z,3.83
2018-04-30T02:00:11.522Z,5.40
2018-04-30T02:05:13.775Z,4.73
2018-04-30T02:10:15.524Z,4.77
2018-04-30T02:15:17.037Z,5.67
2018-04-30T02:20:19.430Z,2.40
2018-04-30T02:25:21.827Z,2.50
2018-04-30T02:30:24.168Z,3.13
2018-04-30T02:35:25.709Z,2.80
2018-04-30T02:40:27.261Z,4.50
2018-04-30T02:45:28.775Z,2.13
2018-04-30T02:50:30.317Z,1.73
2018-04-30T02:55:31.859Z,2.90
2018-04-30T03:00:33.383Z,2.27
2018-04-30T03:05:34.903Z,1.53
2018-04-30T03:10:36.470Z,1.60
2018-04-30T03:15:37.987Z,1.00
2018-04-30T03:20:39.548Z,1.20
2018-04-30T03:25:41.121Z,1.30
2018-04-30T03:30:42.687Z,0.97
2018-04-30T03:35:44.207Z,1.27
2018-04-30T03:40:45.743Z,0.90
2018-04-30T03:45:47.472Z,1.23
2018-04-30T03:50:49.014Z,1.07
2018-04-30T03:55:50.613Z,0.97
2018-04-30T04:01:10.628Z,1.40
2018-04-30T04:22:20.219Z,0.80
2018-04-30T04:27:22.477Z,0.97
2018-04-30T04:32:24.017Z,1.30
2018-04-30T04:37:25.774Z,1.10
2018-04-30T04:42:27.452Z,1.27
2018-04-30T04:47:28.975Z,3.30
2018-04-30T04:52:30.519Z,6.50
2018-04-30T04:57:32.167Z,1.30
2018-04-30T05:02:33.727Z,5.53
2018-04-30T05:07:35.259Z,1.60
2018-04-30T05:12:37.657Z,1.50
2018-04-30T05:17:40.181Z,4.37
2018-04-30T05:22:41.722Z,2.20
2018-04-30T05:27:44.141Z,1.30
2018-04-30T05:32:45.700Z,1.77
2018-04-30T05:37:47.274Z,1.57
2018-04-30T05:42:48.883Z,1.50
2018-04-30T05:47:50.427Z,1.20
2018-04-30T05:52:51.997Z,1.30
2018-04-30T05:57:53.591Z,1.57
2018-04-30T06:02:55.131Z,1.40
2018-04-30T06:07:56.703Z,1.20
2018-04-30T06:12:58.274Z,1.03
2018-04-30T06:17:59.903Z,0.80
2018-04-30T06:23:01.435Z,0.80
2018-04-30T06:28:02.951Z,1.10
2018-04-30T06:33:04.574Z,1.83
2018-04-30T06:38:06.091Z,1.60
2018-04-30T06:43:07.687Z,1.20
2018-04-30T06:48:09.245Z,2.20
2018-04-30T06:53:10.876Z,1.20
2018-04-30T06:58:13.140Z,1.40
2018-04-30T07:03:14.670Z,1.37
2018-04-30T07:08:16.215Z,1.27
2018-04-30T07:13:17.775Z,0.90
2018-04-30T07:18:19.312Z,1.67
2018-04-30T07:23:20.853Z,1.10
2018-04-30T07:28:22.356Z,1.43
2018-04-30T07:33:24.608Z,1.50
2018-04-30T07:38:26.155Z,1.13
2018-04-30T07:43:27.703Z,1.27
2018-04-30T07:48:29.205Z,1.30
2018-04-30T07:53:30.755Z,1.30
2018-04-30T07:58:32.310Z,1.57
2018-04-30T08:03:34.685Z,1.40
2018-04-30T08:08:36.227Z,1.40
2018-04-30T08:13:38.514Z,1.20
2018-04-30T08:18:40.057Z,1.07
2018-04-30T08:23:41.580Z,1.00
2018-04-30T08:28:43.146Z,1.30
2018-04-30T08:33:44.712Z,1.37
2018-04-30T08:38:46.239Z,1.30
2018-04-30T08:43:47.773Z,1.07
2018-04-30T08:48:49.398Z,1.50
2018-04-30T08:53:51.667Z,1.13
2018-04-30T08:58:53.292Z,1.70
2018-04-30T09:03:54.879Z,1.37
2018-04-30T09:08:56.531Z,1.20
2018-04-30T09:13:58.093Z,0.80
2018-04-30T09:18:59.738Z,1.10
2018-04-30T09:24:02.050Z,0.93
2018-04-30T09:29:03.639Z,1.30
2018-04-30T09:34:05.215Z,0.90
2018-04-30T09:39:06.822Z,1.33
2018-04-30T09:44:09.130Z,1.13
2018-04-30T09:49:10.672Z,1.03
2018-04-30T09:54:12.200Z,1.30
2018-04-30T09:59:13.785Z,1.20
2018-04-30T10:04:15.353Z,0.90
2018-04-30T10:09:16.982Z,0.90
2018-04-30T10:14:18.566Z,1.00
2018-04-30T10:19:20.122Z,0.83
2018-04-30T10:24:21.879Z,1.50
2018-04-30T10:29:24.163Z,1.00
2018-04-30T10:34:26.451Z,0.70
2018-04-30T10:39:27.996Z,0.90
2018-04-30T10:44:30.358Z,1.10
2018-04-30T10:49:31.899Z,1.10
2018-04-30T10:54:33.443Z,1.10
2018-04-30T10:59:35.054Z,0.80
2018-04-30T11:04:36.742Z,0.80
2018-04-30T11:09:38.332Z,1.00
2018-04-30T11:14:40.612Z,1.00
2018-04-30T11:19:42.215Z,0.83
2018-04-30T11:24:43.823Z,0.80
2018-04-30T11:29:45.540Z,1.10
2018-04-30T11:34:48.266Z,1.10
2018-04-30T11:39:49.811Z,1.00
2018-04-30T11:44:51.417Z,1.30
2018-04-30T11:49:53.101Z,1.40
2018-04-30T11:54:54.663Z,2.87
2018-04-30T11:59:56.227Z,1.80
2018-04-30T12:04:57.865Z,6.00
2018-04-30T12:09:59.406Z,1.30
2018-04-30T12:15:01.787Z,1.27
2018-04-30T12:20:03.388Z,1.50
2018-04-30T12:25:04.923Z,1.03
2018-04-30T12:30:06.511Z,1.83
2018-04-30T12:35:08.860Z,1.60
2018-04-30T12:40:10.430Z,3.73
2018-04-30T12:45:12.218Z,1.43
2018-04-30T12:50:13.833Z,1.40
2018-04-30T12:55:15.378Z,1.47
2018-04-30T13:00:17.943Z,1.50
2018-04-30T13:05:19.555Z,1.00
2018-04-30T13:10:21.164Z,1.13
2018-04-30T13:15:22.809Z,1.43
2018-04-30T13:20:24.316Z,1.07
2018-04-30T13:25:25.965Z,1.30
2018-04-30T13:30:27.600Z,1.20
2018-04-30T13:35:29.166Z,1.30
2018-04-30T13:40:31.516Z,1.03
2018-04-30T13:45:33.175Z,1.40
2018-04-30T13:50:34.760Z,1.37
2018-04-30T13:55:36.320Z,1.23
2018-04-30T14:00:37.936Z,1.20
2018-04-30T14:05:39.612Z,1.57
2018-04-30T14:10:41.296Z,1.50
2018-04-30T14:15:42.861Z,1.30
2018-04-30T14:20:44.433Z,1.40
2018-04-30T14:25:46.012Z,0.80
2018-04-30T14:30:47.665Z,1.03
2018-04-30T14:35:49.290Z,1.20
2018-04-30T14:40:50.876Z,1.20
2018-04-30T14:45:53.312Z,1.00
2018-04-30T14:50:55.008Z,1.00
2018-04-30T14:55:56.634Z,1.10
2018-04-30T15:00:58.987Z,1.27
2018-04-30T15:06:01.396Z,1.20
2018-04-30T15:11:03.028Z,2.10
2018-04-30T15:16:04.562Z,1.30
2018-04-30T15:21:06.186Z,1.37
2018-04-30T15:26:07.824Z,1.30
2018-04-30T15:31:09.763Z,1.33
2018-04-30T15:36:11.300Z,1.30
2018-04-30T15:41:13.675Z,1.10
2018-04-30T15:46:15.254Z,1.80
2018-04-30T15:51:17.549Z,1.60
2018-04-30T15:56:19.861Z,1.43
2018-04-30T16:01:21.514Z,1.33
2018-04-30T16:06:23.042Z,1.33
2018-04-30T16:11:24.698Z,0.90
2018-04-30T16:16:26.252Z,1.33
2018-04-30T16:21:27.879Z,1.20
2018-04-30T16:26:30.158Z,5.70
2018-04-30T16:31:32.680Z,1.50
2018-04-30T16:36:34.243Z,1.60
2018-04-30T16:41:35.879Z,2.07
2018-04-30T16:46:37.502Z,1.83
2018-04-30T16:51:39.037Z,1.30
2018-04-30T16:56:41.330Z,1.93
2018-04-30T17:01:43.629Z,1.30
2018-04-30T17:06:45.231Z,1.20
2018-04-30T17:11:46.856Z,1.00
2018-04-30T17:16:49.263Z,1.00
2018-04-30T17:21:50.821Z,1.50
2018-04-30T17:26:52.352Z,1.33
2018-04-30T17:31:53.903Z,1.67
2018-04-30T17:36:55.422Z,1.90
2018-04-30T17:41:57.027Z,1.20
2018-04-30T17:46:58.582Z,1.30
2018-04-30T17:52:00.130Z,1.07
2018-04-30T17:57:01.736Z,0.90
2018-04-30T18:02:03.280Z,1.00
2018-04-30T18:07:04.974Z,1.17
2018-04-30T18:12:06.428Z,1.20
2018-04-30T18:17:08.060Z,0.80
2018-04-30T18:22:10.421Z,1.27
2018-04-30T18:27:12.056Z,1.10
2018-04-30T18:32:13.755Z,1.50
2018-04-30T18:37:15.286Z,1.80
2018-04-30T18:42:16.836Z,1.33
2018-04-30T18:47:18.414Z,1.13
2018-04-30T18:52:19.996Z,1.50
2018-04-30T18:57:21.571Z,1.43
2018-04-30T19:02:23.164Z,2.03
2018-04-30T19:07:24.782Z,2.27
2018-04-30T19:12:26.385Z,1.53
2018-04-30T19:17:28.007Z,1.37
2018-04-30T19:22:30.292Z,1.33
2018-04-30T19:27:32.609Z,0.80
2018-04-30T19:32:34.153Z,1.33
2018-04-30T19:37:36.499Z,1.13
2018-04-30T19:42:38.048Z,1.10
2018-04-30T19:47:39.609Z,1.00
2018-04-30T19:52:41.216Z,1.47
2018-04-30T19:57:42.790Z,1.50
2018-04-30T20:02:44.363Z,1.33
2018-04-30T20:07:46.109Z,1.77
2018-04-30T20:12:47.732Z,2.67
2018-04-30T20:17:49.264Z,2.60
2018-04-30T20:22:50.828Z,2.83
2018-04-30T20:27:52.410Z,1.80
2018-04-30T20:32:53.965Z,1.53
2018-04-30T20:37:55.557Z,2.00
2018-04-30T20:42:57.121Z,1.50
2018-04-30T20:47:58.845Z,1.27
2018-04-30T20:53:00.440Z,1.10
2018-04-30T20:58:01.992Z,1.20
2018-04-30T21:03:03.568Z,1.40
2018-04-30T21:08:05.159Z,1.37
2018-04-30T21:13:06.796Z,1.30
2018-04-30T21:18:08.375Z,1.23
2018-04-30T21:23:10.084Z,1.50
2018-04-30T21:28:12.404Z,1.60
2018-04-30T21:33:14.020Z,1.37
2018-04-30T21:38:15.574Z,1.60
2018-04-30T21:43:17.148Z,1.20
2018-04-30T21:48:18.766Z,1.47
2018-04-30T21:53:20.321Z,1.50
2018-04-30T21:58:22.596Z,1.53
2018-04-30T22:03:24.120Z,1.43
2018-04-30T22:08:25.651Z,1.50
2018-04-30T22:13:27.255Z,1.30
2018-04-30T22:18:28.838Z,1.67
2018-04-30T22:23:30.379Z,1.57
2018-04-30T22:28:32.716Z,1.50
2018-04-30T22:33:34.286Z,1.70
2018-04-30T22:38:35.918Z,1.87
2018-04-30T22:43:37.487Z,1.40
2018-04-30T22:48:39.030Z,1.70
2018-04-30T22:53:40.608Z,1.97
2018-04-30T22:58:42.239Z,1.47
2018-04-30T23:03:44.530Z,1.67
2018-04-30T23:08:46.803Z,2.60
2018-04-30T23:13:48.340Z,2.00
2018-04-30T23:18:49.840Z,1.10
2018-04-30T23:23:51.412Z,2.30
2018-04-30T23:28:53.682Z,2.27
2018-04-30T23:33:55.187Z,3.80
2018-04-30T23:38:56.717Z,1.20
2018-04-30T23:43:58.264Z,1.70
2018-04-30T23:48:59.774Z,1.70
2018-04-30T23:54:01.307Z,1.90
2018-04-30T23:59:02.841Z,2.57
